Aviation Digital Data Service (ADDS)

Output produced by TAFs form (1508 UTC 30 September 2016)
found at http://aviationweather.gov/adds/tafs/
 
KSAF 301138Z 3012/0112 VRB05KT P6SM BKN140 
     FM301500 25008KT P6SM SCT120 
     FM302300 28008KT P6SM SCT070 BKN100 
     FM010200 35006KT P6SM SCT100